sensor_id;sensor_type;location;lat;lon;timestamp;temperature;humidity
36322;DHT22;23564;48.290;11.460;2024-01-15T00:01:56;-2.10;14.50
36322;DHT22;23564;48.290;11.460;2024-01-15T00:04:21;-2.10;14.90
36322;DHT22;23564;48.290;11.460;2024-01-15T00:06:47;-2.20;14.40
36322;DHT22;23564;48.290;11.460;2024-01-15T00:09:12;-2.20;14.10
36322;DHT22;23564;48.290;11.460;2024-01-15T00:11:38;-2.20;13.90
36322;DHT22;23564;48.290;11.460;2024-01-15T00:14:04;-2.20;11.90
36322;DHT22;23564;48.290;11.460;2024-01-15T00:16:29;-2.20;15.40
36322;DHT22;23564;48.290;11.460;2024-01-15T00:18:55;-2.20;16.50
36322;DHT22;23564;48.290;11.460;2024-01-15T00:21:20;-2.10;18.00
36322;DHT22;23564;48.290;11.460;2024-01-15T00:23:46;-2.00;17.00
36322;DHT22;23564;48.290;11.460;2024-01-15T00:26:11;-1.90;15.30
36322;DHT22;23564;48.290;11.460;2024-01-15T00:28:37;-1.80;16.90
36322;DHT22;23564;48.290;11.460;2024-01-15T00:31:04;-1.70;14.90
36322;DHT22;23564;48.290;11.460;2024-01-15T00:33:30;-1.70;12.80
36322;DHT22;23564;48.290;11.460;2024-01-15T00:35:56;-1.70;8.80
36322;DHT22;23564;48.290;11.460;2024-01-15T00:38:21;-1.80;2.50
36322;DHT22;23564;48.290;11.460;2024-01-15T00:40:47;-1.80;1.00
36322;DHT22;23564;48.290;11.460;2024-01-15T00:43:12;-1.80;1.00
36322;DHT22;23564;48.290;11.460;2024-01-15T00:45:38;-1.90;1.00
36322;DHT22;23564;48.290;11.460;2024-01-15T00:48:04;-1.90;1.00
36322;DHT22;23564;48.290;11.460;2024-01-15T00:50:30;-2.00;1.00
36322;DHT22;23564;48.290;11.460;2024-01-15T00:52:55;-2.00;1.00
36322;DHT22;23564;48.290;11.460;2024-01-15T00:55:21;-2.00;1.00
36322;DHT22;23564;48.290;11.460;2024-01-15T00:57:46;-2.10;1.00
36322;DHT22;23564;48.290;11.460;2024-01-15T01:00:12;-2.10;1.00
36322;DHT22;23564;48.290;11.460;2024-01-15T01:02:38;-2.10;1.00
36322;DHT22;23564;48.290;11.460;2024-01-15T01:05:04;-2.20;1.00
36322;DHT22;23564;48.290;11.460;2024-01-15T01:07:29;-2.20;1.00
36322;DHT22;23564;48.290;11.460;2024-01-15T01:09:55;-2.30;1.00
36322;DHT22;23564;48.290;11.460;2024-01-15T01:12:20;-2.30;1.00
36322;DHT22;23564;48.290;11.460;2024-01-15T01:14:46;-2.30;1.00
36322;DHT22;23564;48.290;11.460;2024-01-15T01:17:12;-2.30;1.00
36322;DHT22;23564;48.290;11.460;2024-01-15T01:19:37;-2.30;1.00
36322;DHT22;23564;48.290;11.460;2024-01-15T01:22:03;-2.30;1.00
36322;DHT22;23564;48.290;11.460;2024-01-15T01:24:29;-2.30;1.00
36322;DHT22;23564;48.290;11.460;2024-01-15T01:26:54;-2.30;1.00
36322;DHT22;23564;48.290;11.460;2024-01-15T01:29:20;-2.30;1.00
36322;DHT22;23564;48.290;11.460;2024-01-15T01:31:45;-2.20;1.00
36322;DHT22;23564;48.290;11.460;2024-01-15T01:34:14;-2.20;1.00
36322;DHT22;23564;48.290;11.460;2024-01-15T01:36:39;-2.30;1.00
36322;DHT22;23564;48.290;11.460;2024-01-15T01:39:05;-2.30;1.00
36322;DHT22;23564;48.290;11.460;2024-01-15T01:41:30;-2.30;1.00
36322;DHT22;23564;48.290;11.460;2024-01-15T01:43:56;-2.40;1.00
36322;DHT22;23564;48.290;11.460;2024-01-15T01:46:23;-2.40;1.00
36322;DHT22;23564;48.290;11.460;2024-01-15T01:48:49;-2.40;1.00
36322;DHT22;23564;48.290;11.460;2024-01-15T01:51:14;-2.40;1.00
36322;DHT22;23564;48.290;11.460;2024-01-15T01:53:41;-2.40;1.00
36322;DHT22;23564;48.290;11.460;2024-01-15T01:56:07;-2.40;1.00
36322;DHT22;23564;48.290;11.460;2024-01-15T01:58:33;-2.40;1.00
36322;DHT22;23564;48.290;11.460;2024-01-15T02:00:59;-2.40;1.00
36322;DHT22;23564;48.290;11.460;2024-01-15T02:03:26;-2.40;1.00
36322;DHT22;23564;48.290;11.460;2024-01-15T02:05:52;-2.40;1.00
36322;DHT22;23564;48.290;11.460;2024-01-15T02:08:18;-2.40;1.00
36322;DHT22;23564;48.290;11.460;2024-01-15T02:10:44;-2.50;1.00
36322;DHT22;23564;48.290;11.460;2024-01-15T02:13:10;-2.50;1.00
36322;DHT22;23564;48.290;11.460;2024-01-15T02:15:35;-2.50;1.00
36322;DHT22;23564;48.290;11.460;2024-01-15T02:18:05;-2.50;1.00
36322;DHT22;23564;48.290;11.460;2024-01-15T02:20:32;-2.50;1.00
36322;DHT22;23564;48.290;11.460;2024-01-15T02:23:10;-2.50;1.00
36322;DHT22;23564;48.290;11.460;2024-01-15T02:25:43;-2.50;1.00
36322;DHT22;23564;48.290;11.460;2024-01-15T02:28:11;-2.50;1.00
36322;DHT22;23564;48.290;11.460;2024-01-15T02:30:39;-2.50;1.00
36322;DHT22;23564;48.290;11.460;2024-01-15T02:33:06;-2.50;1.00
36322;DHT22;23564;48.290;11.460;2024-01-15T02:35:32;-2.50;1.00
36322;DHT22;23564;48.290;11.460;2024-01-15T02:37:58;-2.50;1.00
36322;DHT22;23564;48.290;11.460;2024-01-15T02:40:23;-2.50;1.00
36322;DHT22;23564;48.290;11.460;2024-01-15T02:42:49;-2.50;1.00
36322;DHT22;23564;48.290;11.460;2024-01-15T02:45:15;-2.50;1.00
36322;DHT22;23564;48.290;11.460;2024-01-15T02:47:40;-2.50;1.00
36322;DHT22;23564;48.290;11.460;2024-01-15T02:50:06;-2.50;1.00
36322;DHT22;23564;48.290;11.460;2024-01-15T02:52:32;-2.40;1.00
36322;DHT22;23564;48.290;11.460;2024-01-15T02:54:57;-2.40;1.00
36322;DHT22;23564;48.290;11.460;2024-01-15T02:57:23;-2.40;1.00
36322;DHT22;23564;48.290;11.460;2024-01-15T02:59:48;-2.50;1.00
36322;DHT22;23564;48.290;11.460;2024-01-15T03:02:14;-2.50;1.00
36322;DHT22;23564;48.290;11.460;2024-01-15T03:04:43;-2.50;1.00
36322;DHT22;23564;48.290;11.460;2024-01-15T03:07:09;-2.50;1.00
36322;DHT22;23564;48.290;11.460;2024-01-15T03:09:34;-2.50;1.00
36322;DHT22;23564;48.290;11.460;2024-01-15T03:12:00;-2.50;1.00
36322;DHT22;23564;48.290;11.460;2024-01-15T03:14:26;-2.50;1.00
36322;DHT22;23564;48.290;11.460;2024-01-15T03:16:52;-2.50;1.00
36322;DHT22;23564;48.290;11.460;2024-01-15T03:19:17;-2.60;1.00
36322;DHT22;23564;48.290;11.460;2024-01-15T03:21:43;-2.60;1.00
36322;DHT22;23564;48.290;11.460;2024-01-15T03:24:08;-2.60;1.00
36322;DHT22;23564;48.290;11.460;2024-01-15T03:26:34;-2.60;1.00
36322;DHT22;23564;48.290;11.460;2024-01-15T03:28:59;-2.70;1.00
36322;DHT22;23564;48.290;11.460;2024-01-15T03:31:25;-2.70;1.00
36322;DHT22;23564;48.290;11.460;2024-01-15T03:33:50;-2.80;1.00
36322;DHT22;23564;48.290;11.460;2024-01-15T03:36:16;-2.90;1.00
36322;DHT22;23564;48.290;11.460;2024-01-15T03:38:42;-3.00;1.00
36322;DHT22;23564;48.290;11.460;2024-01-15T03:41:08;-3.00;1.00
36322;DHT22;23564;48.290;11.460;2024-01-15T03:43:33;-3.10;1.00
36322;DHT22;23564;48.290;11.460;2024-01-15T03:45:59;-3.20;1.00
36322;DHT22;23564;48.290;11.460;2024-01-15T03:48:24;-3.20;1.00
36322;DHT22;23564;48.290;11.460;2024-01-15T03:50:50;-3.30;1.00
36322;DHT22;23564;48.290;11.460;2024-01-15T03:53:16;-3.30;1.00
36322;DHT22;23564;48.290;11.460;2024-01-15T03:55:42;-3.30;1.00
36322;DHT22;23564;48.290;11.460;2024-01-15T03:58:07;-3.30;1.00
36322;DHT22;23564;48.290;11.460;2024-01-15T04:00:33;-3.30;1.00
36322;DHT22;23564;48.290;11.460;2024-01-15T04:02:59;-3.30;1.00
36322;DHT22;23564;48.290;11.460;2024-01-15T04:05:25;-3.40;1.00
36322;DHT22;23564;48.290;11.460;2024-01-15T04:07:51;-3.40;1.00
36322;DHT22;23564;48.290;11.460;2024-01-15T04:10:16;-3.40;1.00
36322;DHT22;23564;48.290;11.460;2024-01-15T04:12:42;-3.40;1.00
36322;DHT22;23564;48.290;11.460;2024-01-15T04:15:08;-3.40;1.00
36322;DHT22;23564;48.290;11.460;2024-01-15T04:17:33;-3.40;1.00
36322;DHT22;23564;48.290;11.460;2024-01-15T04:19:59;-3.40;1.00
36322;DHT22;23564;48.290;11.460;2024-01-15T04:22:25;-3.30;1.00
36322;DHT22;23564;48.290;11.460;2024-01-15T04:24:51;-3.30;1.00
36322;DHT22;23564;48.290;11.460;2024-01-15T04:27:16;-3.20;1.00
36322;DHT22;23564;48.290;11.460;2024-01-15T04:29:42;-3.10;1.00
36322;DHT22;23564;48.290;11.460;2024-01-15T04:32:10;-3.00;1.00
36322;DHT22;23564;48.290;11.460;2024-01-15T04:34:35;-2.90;1.00
36322;DHT22;23564;48.290;11.460;2024-01-15T04:37:01;-2.80;1.00
36322;DHT22;23564;48.290;11.460;2024-01-15T04:39:27;-2.70;1.00
36322;DHT22;23564;48.290;11.460;2024-01-15T04:41:52;-2.70;1.00
36322;DHT22;23564;48.290;11.460;2024-01-15T04:44:18;-2.70;1.00
36322;DHT22;23564;48.290;11.460;2024-01-15T04:46:44;-2.70;1.00
36322;DHT22;23564;48.290;11.460;2024-01-15T04:49:10;-2.70;1.00
36322;DHT22;23564;48.290;11.460;2024-01-15T04:51:36;-2.70;1.00
36322;DHT22;23564;48.290;11.460;2024-01-15T04:54:02;-2.70;1.00
36322;DHT22;23564;48.290;11.460;2024-01-15T04:56:27;-2.70;1.00
36322;DHT22;23564;48.290;11.460;2024-01-15T04:58:53;-2.60;1.00
36322;DHT22;23564;48.290;11.460;2024-01-15T05:01:18;-2.60;1.00
36322;DHT22;23564;48.290;11.460;2024-01-15T05:03:44;-2.60;1.00
36322;DHT22;23564;48.290;11.460;2024-01-15T05:06:09;-2.50;1.00
36322;DHT22;23564;48.290;11.460;2024-01-15T05:08:35;-2.60;1.00
36322;DHT22;23564;48.290;11.460;2024-01-15T05:11:00;-2.50;1.00
36322;DHT22;23564;48.290;11.460;2024-01-15T05:13:26;-2.50;1.00
36322;DHT22;23564;48.290;11.460;2024-01-15T05:15:52;-2.50;1.00
36322;DHT22;23564;48.290;11.460;2024-01-15T05:18:17;-2.60;1.00
36322;DHT22;23564;48.290;11.460;2024-01-15T05:20:43;-2.60;1.00
36322;DHT22;23564;48.290;11.460;2024-01-15T05:23:08;-2.60;1.00
36322;DHT22;23564;48.290;11.460;2024-01-15T05:25:35;-2.50;1.00
36322;DHT22;23564;48.290;11.460;2024-01-15T05:28:01;-2.50;1.00
36322;DHT22;23564;48.290;11.460;2024-01-15T05:30:26;-2.40;1.00
36322;DHT22;23564;48.290;11.460;2024-01-15T05:32:52;-2.40;1.00
36322;DHT22;23564;48.290;11.460;2024-01-15T05:35:18;-2.40;1.00
36322;DHT22;23564;48.290;11.460;2024-01-15T05:37:44;-2.30;1.00
36322;DHT22;23564;48.290;11.460;2024-01-15T05:40:11;-2.30;1.00
36322;DHT22;23564;48.290;11.460;2024-01-15T05:42:37;-2.20;1.00
36322;DHT22;23564;48.290;11.460;2024-01-15T05:45:03;-2.20;1.00
36322;DHT22;23564;48.290;11.460;2024-01-15T05:47:30;-2.20;1.00
36322;DHT22;23564;48.290;11.460;2024-01-15T05:49:56;-2.10;1.00
36322;DHT22;23564;48.290;11.460;2024-01-15T05:52:22;-2.10;1.00
36322;DHT22;23564;48.290;11.460;2024-01-15T05:54:49;-2.10;1.00
36322;DHT22;23564;48.290;11.460;2024-01-15T05:57:14;-2.10;1.00
36322;DHT22;23564;48.290;11.460;2024-01-15T05:59:40;-2.00;1.00
36322;DHT22;23564;48.290;11.460;2024-01-15T06:02:05;-2.00;1.00
36322;DHT22;23564;48.290;11.460;2024-01-15T06:04:31;-1.90;1.00
36322;DHT22;23564;48.290;11.460;2024-01-15T06:06:56;-1.90;1.00
36322;DHT22;23564;48.290;11.460;2024-01-15T06:09:22;-1.90;1.00
36322;DHT22;23564;48.290;11.460;2024-01-15T06:11:47;-1.80;1.00
36322;DHT22;23564;48.290;11.460;2024-01-15T06:14:13;-1.80;1.00
36322;DHT22;23564;48.290;11.460;2024-01-15T06:16:38;-1.80;1.00
36322;DHT22;23564;48.290;11.460;2024-01-15T06:19:04;-1.80;1.00
36322;DHT22;23564;48.290;11.460;2024-01-15T06:21:29;-1.70;1.00
36322;DHT22;23564;48.290;11.460;2024-01-15T06:23:55;-1.70;1.00
36322;DHT22;23564;48.290;11.460;2024-01-15T06:26:22;-1.70;1.00
36322;DHT22;23564;48.290;11.460;2024-01-15T06:28:48;-1.70;1.00
36322;DHT22;23564;48.290;11.460;2024-01-15T06:31:13;-1.60;1.00
36322;DHT22;23564;48.290;11.460;2024-01-15T06:33:39;-1.60;1.00
36322;DHT22;23564;48.290;11.460;2024-01-15T06:36:05;-1.60;1.00
36322;DHT22;23564;48.290;11.460;2024-01-15T06:38:31;-1.60;1.00
36322;DHT22;23564;48.290;11.460;2024-01-15T06:40:57;-1.60;1.00
36322;DHT22;23564;48.290;11.460;2024-01-15T06:43:22;-1.60;1.00
36322;DHT22;23564;48.290;11.460;2024-01-15T06:45:48;-1.60;1.00
36322;DHT22;23564;48.290;11.460;2024-01-15T06:48:13;-1.50;1.00
36322;DHT22;23564;48.290;11.460;2024-01-15T06:50:42;-1.60;1.00
36322;DHT22;23564;48.290;11.460;2024-01-15T06:53:07;-1.50;1.00
36322;DHT22;23564;48.290;11.460;2024-01-15T06:55:33;-1.50;1.00
36322;DHT22;23564;48.290;11.460;2024-01-15T06:57:58;-1.50;1.00
36322;DHT22;23564;48.290;11.460;2024-01-15T07:00:24;-1.60;1.00
36322;DHT22;23564;48.290;11.460;2024-01-15T07:02:49;-1.50;1.00
36322;DHT22;23564;48.290;11.460;2024-01-15T07:05:15;-1.60;1.00
36322;DHT22;23564;48.290;11.460;2024-01-15T07:07:41;-1.60;1.00
36322;DHT22;23564;48.290;11.460;2024-01-15T07:10:07;-1.60;1.00
36322;DHT22;23564;48.290;11.460;2024-01-15T07:12:32;-1.50;1.00
36322;DHT22;23564;48.290;11.460;2024-01-15T07:14:59;-1.50;1.00
36322;DHT22;23564;48.290;11.460;2024-01-15T07:17:24;-1.50;1.00
36322;DHT22;23564;48.290;11.460;2024-01-15T07:19:50;-1.50;1.00
36322;DHT22;23564;48.290;11.460;2024-01-15T07:22:15;-1.50;1.00
36322;DHT22;23564;48.290;11.460;2024-01-15T07:24:43;-1.50;1.00
36322;DHT22;23564;48.290;11.460;2024-01-15T07:27:08;-1.40;1.00
36322;DHT22;23564;48.290;11.460;2024-01-15T07:29:34;-1.40;1.00
36322;DHT22;23564;48.290;11.460;2024-01-15T07:32:03;-1.40;1.00
36322;DHT22;23564;48.290;11.460;2024-01-15T07:34:29;-1.40;1.00
36322;DHT22;23564;48.290;11.460;2024-01-15T07:36:54;-1.40;1.00
36322;DHT22;23564;48.290;11.460;2024-01-15T07:39:20;-1.40;1.00
36322;DHT22;23564;48.290;11.460;2024-01-15T07:41:45;-1.40;1.00
36322;DHT22;23564;48.290;11.460;2024-01-15T07:44:11;-1.30;1.00
36322;DHT22;23564;48.290;11.460;2024-01-15T07:46:36;-1.30;1.00
36322;DHT22;23564;48.290;11.460;2024-01-15T07:49:02;-1.30;1.00
36322;DHT22;23564;48.290;11.460;2024-01-15T07:51:28;-1.30;1.00
36322;DHT22;23564;48.290;11.460;2024-01-15T07:53:54;-1.30;1.00
36322;DHT22;23564;48.290;11.460;2024-01-15T07:56:23;-1.30;1.00
36322;DHT22;23564;48.290;11.460;2024-01-15T07:58:48;-1.30;1.00
36322;DHT22;23564;48.290;11.460;2024-01-15T08:01:14;-1.30;1.00
36322;DHT22;23564;48.290;11.460;2024-01-15T08:03:39;-1.30;1.00
36322;DHT22;23564;48.290;11.460;2024-01-15T08:06:05;-1.30;1.00
36322;DHT22;23564;48.290;11.460;2024-01-15T08:08:31;-1.30;1.00
36322;DHT22;23564;48.290;11.460;2024-01-15T08:10:57;-1.20;1.00
36322;DHT22;23564;48.290;11.460;2024-01-15T08:13:22;-1.10;1.00
36322;DHT22;23564;48.290;11.460;2024-01-15T08:15:48;-1.10;1.00
36322;DHT22;23564;48.290;11.460;2024-01-15T08:18:13;-1.00;1.00
36322;DHT22;23564;48.290;11.460;2024-01-15T08:20:39;-0.90;1.00
36322;DHT22;23564;48.290;11.460;2024-01-15T08:23:05;-0.90;1.00
36322;DHT22;23564;48.290;11.460;2024-01-15T08:25:30;-0.80;1.00
36322;DHT22;23564;48.290;11.460;2024-01-15T08:27:56;-0.80;1.00
36322;DHT22;23564;48.290;11.460;2024-01-15T08:30:23;-0.70;1.00
36322;DHT22;23564;48.290;11.460;2024-01-15T08:32:55;-0.70;1.00
36322;DHT22;23564;48.290;11.460;2024-01-15T08:35:21;-0.70;1.00
36322;DHT22;23564;48.290;11.460;2024-01-15T08:37:49;-0.70;1.00
36322;DHT22;23564;48.290;11.460;2024-01-15T08:40:15;-0.70;1.00
36322;DHT22;23564;48.290;11.460;2024-01-15T08:42:41;-0.60;1.00
36322;DHT22;23564;48.290;11.460;2024-01-15T08:45:07;-0.60;1.00
36322;DHT22;23564;48.290;11.460;2024-01-15T08:47:32;-0.50;1.00
36322;DHT22;23564;48.290;11.460;2024-01-15T08:49:58;-0.40;1.00
36322;DHT22;23564;48.290;11.460;2024-01-15T08:52:24;-0.40;1.00
36322;DHT22;23564;48.290;11.460;2024-01-15T08:54:49;-0.30;1.00
36322;DHT22;23564;48.290;11.460;2024-01-15T08:57:16;-0.30;99.90
36322;DHT22;23564;48.290;11.460;2024-01-15T08:59:41;-0.20;99.90
36322;DHT22;23564;48.290;11.460;2024-01-15T09:02:07;-0.20;99.90
36322;DHT22;23564;48.290;11.460;2024-01-15T09:04:33;-0.10;99.90
36322;DHT22;23564;48.290;11.460;2024-01-15T09:06:59;-0.10;99.90
36322;DHT22;23564;48.290;11.460;2024-01-15T09:09:24;0.00;99.90
36322;DHT22;23564;48.290;11.460;2024-01-15T09:11:51;0.00;99.90
36322;DHT22;23564;48.290;11.460;2024-01-15T09:14:17;0.00;99.90
36322;DHT22;23564;48.290;11.460;2024-01-15T09:16:43;0.00;99.90
36322;DHT22;23564;48.290;11.460;2024-01-15T09:19:08;0.00;99.90
36322;DHT22;23564;48.290;11.460;2024-01-15T09:21:34;-0.10;99.90
36322;DHT22;23564;48.290;11.460;2024-01-15T09:23:59;-0.10;1.00
36322;DHT22;23564;48.290;11.460;2024-01-15T09:26:25;0.00;99.90
36322;DHT22;23564;48.290;11.460;2024-01-15T09:28:51;0.00;99.90
36322;DHT22;23564;48.290;11.460;2024-01-15T09:31:16;0.00;1.00
36322;DHT22;23564;48.290;11.460;2024-01-15T09:33:43;0.10;99.90
36322;DHT22;23564;48.290;11.460;2024-01-15T09:36:09;0.10;99.90
36322;DHT22;23564;48.290;11.460;2024-01-15T09:38:35;0.10;99.90
36322;DHT22;23564;48.290;11.460;2024-01-15T09:41:00;0.10;99.90
36322;DHT22;23564;48.290;11.460;2024-01-15T09:43:26;0.20;99.90
36322;DHT22;23564;48.290;11.460;2024-01-15T09:45:52;0.20;99.90
36322;DHT22;23564;48.290;11.460;2024-01-15T09:48:18;0.20;99.90
36322;DHT22;23564;48.290;11.460;2024-01-15T09:50:44;0.20;99.90
36322;DHT22;23564;48.290;11.460;2024-01-15T09:53:11;0.20;99.90
36322;DHT22;23564;48.290;11.460;2024-01-15T09:55:37;0.20;99.90
36322;DHT22;23564;48.290;11.460;2024-01-15T09:58:03;0.10;99.90
36322;DHT22;23564;48.290;11.460;2024-01-15T10:00:29;0.20;99.90
36322;DHT22;23564;48.290;11.460;2024-01-15T10:02:58;0.20;99.90
36322;DHT22;23564;48.290;11.460;2024-01-15T10:05:26;0.30;99.90
36322;DHT22;23564;48.290;11.460;2024-01-15T10:07:53;0.30;99.90
36322;DHT22;23564;48.290;11.460;2024-01-15T10:10:20;0.30;99.90
36322;DHT22;23564;48.290;11.460;2024-01-15T10:12:47;0.30;99.90
36322;DHT22;23564;48.290;11.460;2024-01-15T10:15:13;0.30;99.90
36322;DHT22;23564;48.290;11.460;2024-01-15T10:17:39;0.30;99.90
36322;DHT22;23564;48.290;11.460;2024-01-15T10:20:14;0.40;99.90
36322;DHT22;23564;48.290;11.460;2024-01-15T10:22:44;0.40;99.90
36322;DHT22;23564;48.290;11.460;2024-01-15T10:25:12;0.40;99.90
36322;DHT22;23564;48.290;11.460;2024-01-15T10:27:39;0.40;99.90
36322;DHT22;23564;48.290;11.460;2024-01-15T10:30:06;0.50;99.90
36322;DHT22;23564;48.290;11.460;2024-01-15T10:32:32;0.50;99.90
36322;DHT22;23564;48.290;11.460;2024-01-15T10:34:57;0.60;99.90
36322;DHT22;23564;48.290;11.460;2024-01-15T10:37:24;0.60;99.90
36322;DHT22;23564;48.290;11.460;2024-01-15T10:39:50;0.70;99.90
36322;DHT22;23564;48.290;11.460;2024-01-15T10:42:16;0.80;1.00
36322;DHT22;23564;48.290;11.460;2024-01-15T10:44:44;0.90;1.00
36322;DHT22;23564;48.290;11.460;2024-01-15T10:47:09;1.00;1.00
36322;DHT22;23564;48.290;11.460;2024-01-15T10:49:36;1.20;1.00
36322;DHT22;23564;48.290;11.460;2024-01-15T10:52:03;1.30;96.40
36322;DHT22;23564;48.290;11.460;2024-01-15T10:54:29;1.30;99.90
36322;DHT22;23564;48.290;11.460;2024-01-15T10:56:56;1.40;1.00
36322;DHT22;23564;48.290;11.460;2024-01-15T10:59:22;1.40;1.00
36322;DHT22;23564;48.290;11.460;2024-01-15T11:01:49;1.40;99.90
36322;DHT22;23564;48.290;11.460;2024-01-15T11:04:15;1.30;99.90
36322;DHT22;23564;48.290;11.460;2024-01-15T11:06:46;1.10;99.90
36322;DHT22;23564;48.290;11.460;2024-01-15T11:09:12;0.90;99.90
36322;DHT22;23564;48.290;11.460;2024-01-15T11:11:45;0.80;1.00
36322;DHT22;23564;48.290;11.460;2024-01-15T11:14:38;0.70;99.90
36322;DHT22;23564;48.290;11.460;2024-01-15T11:17:04;0.50;99.90
36322;DHT22;23564;48.290;11.460;2024-01-15T11:19:43;0.40;99.90
36322;DHT22;23564;48.290;11.460;2024-01-15T11:24:54;0.40;99.90
36322;DHT22;23564;48.290;11.460;2024-01-15T11:27:43;0.40;99.90
36322;DHT22;23564;48.290;11.460;2024-01-15T11:30:10;0.40;99.90
36322;DHT22;23564;48.290;11.460;2024-01-15T11:32:36;0.40;99.90
36322;DHT22;23564;48.290;11.460;2024-01-15T11:35:02;0.50;99.90
36322;DHT22;23564;48.290;11.460;2024-01-15T11:37:56;0.70;99.90
36322;DHT22;23564;48.290;11.460;2024-01-15T11:40:18;0.80;1.00
36322;DHT22;23564;48.290;11.460;2024-01-15T11:42:48;1.00;99.90
36322;DHT22;23564;48.290;11.460;2024-01-15T11:45:18;1.20;1.00
36322;DHT22;23564;48.290;11.460;2024-01-15T11:48:11;1.20;99.90
36322;DHT22;23564;48.290;11.460;2024-01-15T11:50:48;1.30;1.00
36322;DHT22;23564;48.290;11.460;2024-01-15T11:53:36;1.30;99.90
36322;DHT22;23564;48.290;11.460;2024-01-15T11:56:03;1.40;1.00
36322;DHT22;23564;48.290;11.460;2024-01-15T11:58:31;1.40;1.00
36322;DHT22;23564;48.290;11.460;2024-01-15T12:00:57;1.50;99.90
36322;DHT22;23564;48.290;11.460;2024-01-15T12:03:24;1.50;99.90
36322;DHT22;23564;48.290;11.460;2024-01-15T12:05:51;1.60;95.80
36322;DHT22;23564;48.290;11.460;2024-01-15T12:08:24;1.70;99.90
36322;DHT22;23564;48.290;11.460;2024-01-15T12:10:50;1.70;99.90
36322;DHT22;23564;48.290;11.460;2024-01-15T12:13:16;1.80;1.00
36322;DHT22;23564;48.290;11.460;2024-01-15T12:15:44;1.80;99.90
36322;DHT22;23564;48.290;11.460;2024-01-15T12:18:13;1.70;1.00
36322;DHT22;23564;48.290;11.460;2024-01-15T12:20:40;1.60;99.90
36322;DHT22;23564;48.290;11.460;2024-01-15T12:23:06;1.50;99.90
36322;DHT22;23564;48.290;11.460;2024-01-15T12:25:32;1.50;99.90
36322;DHT22;23564;48.290;11.460;2024-01-15T12:27:59;1.50;99.90
36322;DHT22;23564;48.290;11.460;2024-01-15T12:30:29;1.50;99.90
36322;DHT22;23564;48.290;11.460;2024-01-15T12:32:56;1.50;99.90
36322;DHT22;23564;48.290;11.460;2024-01-15T12:35:24;1.60;1.00
36322;DHT22;23564;48.290;11.460;2024-01-15T12:37:51;1.80;1.00
36322;DHT22;23564;48.290;11.460;2024-01-15T12:40:20;1.90;69.00
36322;DHT22;23564;48.290;11.460;2024-01-15T12:42:46;2.00;99.90
36322;DHT22;23564;48.290;11.460;2024-01-15T12:45:12;2.10;99.90
36322;DHT22;23564;48.290;11.460;2024-01-15T12:47:39;2.10;99.90
36322;DHT22;23564;48.290;11.460;2024-01-15T12:50:09;2.20;99.90
36322;DHT22;23564;48.290;11.460;2024-01-15T12:52:36;2.10;99.90
36322;DHT22;23564;48.290;11.460;2024-01-15T12:55:04;2.10;1.00
36322;DHT22;23564;48.290;11.460;2024-01-15T12:57:30;2.00;33.90
36322;DHT22;23564;48.290;11.460;2024-01-15T12:59:56;2.00;94.00
36322;DHT22;23564;48.290;11.460;2024-01-15T13:02:21;2.00;99.90
36322;DHT22;23564;48.290;11.460;2024-01-15T13:04:47;2.00;99.90
36322;DHT22;23564;48.290;11.460;2024-01-15T13:07:13;2.10;1.00
36322;DHT22;23564;48.290;11.460;2024-01-15T13:09:38;2.10;1.00
36322;DHT22;23564;48.290;11.460;2024-01-15T13:12:05;2.10;1.00
36322;DHT22;23564;48.290;11.460;2024-01-15T13:14:31;2.00;82.10
36322;DHT22;23564;48.290;11.460;2024-01-15T13:16:58;2.00;99.90
36322;DHT22;23564;48.290;11.460;2024-01-15T13:19:24;2.00;99.90
36322;DHT22;23564;48.290;11.460;2024-01-15T13:21:49;1.90;81.30
36322;DHT22;23564;48.290;11.460;2024-01-15T13:24:19;1.90;99.90
36322;DHT22;23564;48.290;11.460;2024-01-15T13:26:44;1.80;99.90
36322;DHT22;23564;48.290;11.460;2024-01-15T13:29:10;1.80;27.90
36322;DHT22;23564;48.290;11.460;2024-01-15T13:31:36;1.70;1.00
36322;DHT22;23564;48.290;11.460;2024-01-15T13:34:01;1.80;1.00
36322;DHT22;23564;48.290;11.460;2024-01-15T13:36:28;1.70;30.10
36322;DHT22;23564;48.290;11.460;2024-01-15T13:38:54;1.60;99.90
36322;DHT22;23564;48.290;11.460;2024-01-15T13:41:20;1.50;99.90
36322;DHT22;23564;48.290;11.460;2024-01-15T13:43:55;1.50;1.00
36322;DHT22;23564;48.290;11.460;2024-01-15T13:46:24;1.40;99.90
36322;DHT22;23564;48.290;11.460;2024-01-15T13:48:50;1.40;99.90
36322;DHT22;23564;48.290;11.460;2024-01-15T13:51:15;1.30;1.00
36322;DHT22;23564;48.290;11.460;2024-01-15T13:53:41;1.30;1.00
36322;DHT22;23564;48.290;11.460;2024-01-15T13:56:07;1.30;12.50
36322;DHT22;23564;48.290;11.460;2024-01-15T13:58:33;1.30;98.00
36322;DHT22;23564;48.290;11.460;2024-01-15T14:01:02;1.30;99.90
36322;DHT22;23564;48.290;11.460;2024-01-15T14:03:31;1.40;93.10
36322;DHT22;23564;48.290;11.460;2024-01-15T14:05:57;1.40;79.90
36322;DHT22;23564;48.290;11.460;2024-01-15T14:08:22;1.40;63.60
36322;DHT22;23564;48.290;11.460;2024-01-15T14:10:48;1.40;1.00
36322;DHT22;23564;48.290;11.460;2024-01-15T14:13:14;1.30;1.00
36322;DHT22;23564;48.290;11.460;2024-01-15T14:15:39;1.30;99.90
36322;DHT22;23564;48.290;11.460;2024-01-15T14:18:05;1.30;1.00
36322;DHT22;23564;48.290;11.460;2024-01-15T14:20:31;1.30;1.00
36322;DHT22;23564;48.290;11.460;2024-01-15T14:22:56;1.30;63.50
36322;DHT22;23564;48.290;11.460;2024-01-15T14:25:22;1.20;99.90
36322;DHT22;23564;48.290;11.460;2024-01-15T14:27:49;1.20;99.90
36322;DHT22;23564;48.290;11.460;2024-01-15T14:30:15;1.10;99.90
36322;DHT22;23564;48.290;11.460;2024-01-15T14:32:42;1.20;99.90
36322;DHT22;23564;48.290;11.460;2024-01-15T14:35:08;1.10;99.90
36322;DHT22;23564;48.290;11.460;2024-01-15T14:37:39;1.10;1.00
36322;DHT22;23564;48.290;11.460;2024-01-15T14:40:07;1.00;1.00
36322;DHT22;23564;48.290;11.460;2024-01-15T14:42:41;1.00;1.00
36322;DHT22;23564;48.290;11.460;2024-01-15T14:45:07;0.90;1.00
36322;DHT22;23564;48.290;11.460;2024-01-15T14:47:39;0.90;1.00
36322;DHT22;23564;48.290;11.460;2024-01-15T14:50:08;0.90;1.00
36322;DHT22;23564;48.290;11.460;2024-01-15T14:52:36;0.90;1.00
36322;DHT22;23564;48.290;11.460;2024-01-15T14:55:02;0.80;1.00
36322;DHT22;23564;48.290;11.460;2024-01-15T14:57:27;0.80;1.00
36322;DHT22;23564;48.290;11.460;2024-01-15T14:59:53;0.80;1.00
36322;DHT22;23564;48.290;11.460;2024-01-15T15:02:19;0.80;1.00
36322;DHT22;23564;48.290;11.460;2024-01-15T15:04:45;0.80;1.00
36322;DHT22;23564;48.290;11.460;2024-01-15T15:07:10;0.80;1.00
36322;DHT22;23564;48.290;11.460;2024-01-15T15:09:36;0.80;1.00
36322;DHT22;23564;48.290;11.460;2024-01-15T15:12:03;0.80;1.00
36322;DHT22;23564;48.290;11.460;2024-01-15T15:14:30;0.80;1.00
36322;DHT22;23564;48.290;11.460;2024-01-15T15:16:57;0.80;1.00
36322;DHT22;23564;48.290;11.460;2024-01-15T15:19:22;0.80;1.00
36322;DHT22;23564;48.290;11.460;2024-01-15T15:21:48;0.80;1.00
36322;DHT22;23564;48.290;11.460;2024-01-15T15:24:14;0.70;1.00
36322;DHT22;23564;48.290;11.460;2024-01-15T15:26:39;0.70;1.00
36322;DHT22;23564;48.290;11.460;2024-01-15T15:29:05;0.70;1.00
36322;DHT22;23564;48.290;11.460;2024-01-15T15:31:30;0.70;1.00